Time;durP1;ratioP1;P1;durP2;ratioP2;P2;SDS_P1;SDS_P2;PMS_P1;PMS_P2;Temp;Humidity;BMP_temperature;BMP_pressure;BME280_temperature;BME280_humidity;BME280_pressure;Samples;Min_cycle;Max_cycle;Signal;HPM_P1;HPM_P2
2021/03/19 00:01:22;;;;;;;18.50;7.72;;;;;;;5.97;75.81;101112.77;1650346;87;21386;-78
2021/03/19 00:03:55;;;;;;;24.87;9.88;;;;;;;5.95;75.92;101113.01;1623593;87;21798;-73
2021/03/19 00:06:30;;;;;;;29.42;9.65;;;;;;;5.93;76.11;101116.48;1648117;86;21212;-79
2021/03/19 00:09:04;;;;;;;26.82;10.88;;;;;;;5.94;76.26;101118.73;1650524;85;21413;-78
2021/03/19 00:11:37;;;;;;;25.17;10.08;;;;;;;5.98;76.31;101108.97;1644744;87;21331;-78
2021/03/19 00:14:10;;;;;;;35.55;9.90;;;;;;;6.02;76.21;101114.33;1648192;87;21225;-76
2021/03/19 00:16:43;;;;;;;16.27;8.15;;;;;;;6.00;76.17;101108.20;1618773;88;21475;-77
2021/03/19 00:19:15;;;;;;;22.13;9.87;;;;;;;5.99;76.21;101116.16;1653193;87;21405;-80
2021/03/19 00:21:48;;;;;;;19.45;8.38;;;;;;;6.05;76.30;101114.73;1618857;88;21277;-78
2021/03/19 00:24:22;;;;;;;19.40;9.48;;;;;;;6.07;76.23;101110.38;1653120;87;21852;-80
2021/03/19 00:26:55;;;;;;;20.32;10.63;;;;;;;6.02;76.17;101104.16;1591324;88;21926;-76
2021/03/19 00:29:27;;;;;;;19.77;11.15;;;;;;;6.00;76.21;101098.56;1653146;87;21860;-77
2021/03/19 00:32:00;;;;;;;19.03;11.17;;;;;;;5.98;76.26;101099.33;1613417;89;21372;-78
2021/03/19 00:34:33;;;;;;;22.20;12.17;;;;;;;5.99;76.33;101103.21;1648616;87;21240;-74
2021/03/19 00:37:05;;;;;;;18.92;10.28;;;;;;;6.01;76.39;101094.73;1649732;87;21419;-81
2021/03/19 00:39:39;;;;;;;15.68;10.18;;;;;;;6.06;76.40;101101.29;1649944;87;21374;-80
2021/03/19 00:42:12;;;;;;;19.90;10.40;;;;;;;6.08;76.36;101098.29;1650082;87;21339;-80
2021/03/19 00:44:44;;;;;;;17.67;10.10;;;;;;;6.06;76.27;101100.43;1645975;87;21342;-77
2021/03/19 00:47:17;;;;;;;14.47;8.70;;;;;;;6.01;76.29;101103.86;1616397;87;21233;-79
2021/03/19 00:49:49;;;;;;;18.77;9.13;;;;;;;5.99;76.37;101105.14;1619804;87;21230;-73
2021/03/19 00:52:23;;;;;;;15.72;8.50;;;;;;;5.95;76.45;101106.12;1653290;87;21256;-77
2021/03/19 00:54:55;;;;;;;14.70;9.00;;;;;;;5.95;76.62;101106.12;1620489;88;21250;-74
2021/03/19 00:57:28;;;;;;;15.60;9.00;;;;;;;5.93;76.69;101103.27;1654541;87;21358;-76
2021/03/19 01:00:00;;;;;;;16.02;8.78;;;;;;;5.94;76.78;101099.44;1620471;88;21368;-79
2021/03/19 01:02:32;;;;;;;20.60;10.25;;;;;;;5.94;76.81;101104.44;1656255;85;21367;-76
2021/03/19 01:05:13;;;;;;;13.83;9.03;;;;;;;5.98;76.76;101104.28;1614173;89;21249;-74
2021/03/19 01:07:49;;;;;;;17.25;9.70;;;;;;;6.02;76.75;101101.93;1648487;87;21267;-80
2021/03/19 01:10:33;;;;;;;14.93;10.30;;;;;;;6.01;76.73;101104.37;1619208;87;21399;-76
2021/03/19 01:13:07;;;;;;;21.87;9.90;;;;;;;6.00;76.85;101104.07;1654826;87;21402;-72
2021/03/19 01:15:40;;;;;;;13.70;9.73;;;;;;;6.05;76.83;101107.02;1620469;87;21372;-74
2021/03/19 01:18:15;;;;;;;19.23;8.90;;;;;;;6.03;76.70;101104.47;1654899;87;21196;-77
2021/03/19 01:20:49;;;;;;;14.78;8.43;;;;;;;5.99;76.76;101108.72;1620612;87;21568;-78
2021/03/19 01:23:24;;;;;;;13.80;8.20;;;;;;;6.00;76.79;101102.69;1653320;87;21358;-79
2021/03/19 01:25:58;;;;;;;12.98;8.50;;;;;;;5.98;76.91;101102.08;1618602;87;21301;-78
2021/03/19 01:28:30;;;;;;;16.15;9.70;;;;;;;5.94;76.99;101104.44;1653083;87;21232;-79
2021/03/19 01:31:03;;;;;;;20.85;10.45;;;;;;;5.93;77.03;101099.96;1618764;88;21410;-76
2021/03/19 01:33:36;;;;;;;15.35;9.53;;;;;;;5.86;77.06;101101.91;1653267;85;21351;-78
2021/03/19 01:36:09;;;;;;;15.75;9.73;;;;;;;5.79;77.24;101098.84;1618787;87;21374;-78
2021/03/19 01:38:42;;;;;;;15.45;10.20;;;;;;;5.75;77.48;101101.19;1653029;87;21382;-80
2021/03/19 01:41:15;;;;;;;17.57;12.33;;;;;;;5.75;77.73;101097.05;1613901;89;21431;-81
2021/03/19 01:44:12;;;;;;;22.87;13.98;;;;;;;5.73;77.88;101092.31;1648260;86;21224;-80
2021/03/19 01:47:22;;;;;;;;;;;;;;;5.74;78.07;101105.01;1650768;87;21792;-75
2021/03/19 01:50:49;;;;;;;20.60;12.95;;;;;;;5.70;78.16;101106.53;1648188;86;20227;-78
2021/03/19 01:54:19;;;;;;;17.67;10.90;;;;;;;5.67;78.40;101100.07;1648248;87;21726;-78
2021/03/19 01:57:48;;;;;;;18.65;11.83;;;;;;;5.67;78.63;101113.84;1648168;87;21737;-78
2021/03/19 02:01:15;;;;;;;21.43;12.73;;;;;;;5.70;78.84;101114.80;1634881;87;21773;-77
2021/03/19 02:04:43;;;;;;;22.40;11.88;;;;;;;5.73;78.77;101114.34;1648266;87;21216;-79
2021/03/19 02:08:10;;;;;;;15.72;10.13;;;;;;;5.71;78.75;101115.63;1648269;86;21724;-76
2021/03/19 02:11:38;;;;;;;19.55;11.73;;;;;;;5.69;78.69;101124.64;1648071;86;21209;-78
2021/03/19 02:15:06;;;;;;;18.55;11.43;;;;;;;5.68;78.72;101134.80;1634473;86;21984;-81
2021/03/19 02:18:34;;;;;;;18.02;10.82;;;;;;;5.66;78.74;101127.82;1596378;88;21235;-77
2021/03/19 02:22:02;;;;;;;17.40;11.17;;;;;;;5.64;78.68;101127.20;1596131;88;21227;-82
2021/03/19 02:25:29;;;;;;;16.97;10.53;;;;;;;5.63;78.72;101132.41;1596064;88;21224;-83
2021/03/19 02:28:50;;;;;;;20.35;11.05;;;;;;;5.65;78.80;101128.37;1620668;87;21737;-82
2021/03/19 02:31:43;;;;;;;16.48;11.12;;;;;;;5.71;78.65;101134.91;1636338;87;21252;-76
2021/03/19 02:34:16;;;;;;;15.50;10.68;;;;;;;5.68;78.52;101136.73;1640810;87;21721;-73
2021/03/19 02:36:49;;;;;;;17.37;11.50;;;;;;;5.64;78.57;101136.84;1648435;87;21292;-82
2021/03/19 02:39:22;;;;;;;17.20;9.55;;;;;;;5.65;78.52;101135.26;1648443;85;21223;-87
2021/03/19 02:41:55;;;;;;;16.05;11.38;;;;;;;5.62;78.51;101138.43;1619961;87;21384;-73
2021/03/19 02:44:28;;;;;;;15.63;11.05;;;;;;;5.58;78.58;101149.59;1653032;87;21338;-74
2021/03/19 02:47:01;;;;;;;18.60;11.22;;;;;;;5.56;78.69;101150.86;1614217;89;21313;-76
2021/03/19 02:49:35;;;;;;;18.10;11.43;;;;;;;5.58;78.78;101154.23;1648402;87;21211;-74
2021/03/19 02:52:12;;;;;;;17.25;11.55;;;;;;;5.60;78.72;101149.34;1643103;87;21601;-73
2021/03/19 02:54:44;;;;;;;13.20;8.93;;;;;;;5.58;78.67;101159.22;1634223;87;21881;-82
2021/03/19 02:57:18;;;;;;;16.23;11.08;;;;;;;5.58;78.63;101159.73;1621928;88;21917;-79
2021/03/19 02:59:51;;;;;;;20.65;11.57;;;;;;;5.60;78.72;101158.98;1623411;87;21348;-84
2021/03/19 03:02:24;;;;;;;17.60;11.23;;;;;;;5.63;78.69;101158.56;1649971;86;21364;-80
2021/03/19 03:04:57;;;;;;;16.62;11.08;;;;;;;5.65;78.62;101163.31;1649818;87;21358;-81
2021/03/19 03:07:32;;;;;;;18.52;10.35;;;;;;;5.69;78.45;101170.91;1646675;87;21366;-82
2021/03/19 03:10:06;;;;;;;19.00;9.73;;;;;;;5.73;78.30;101165.84;1622127;88;21373;-74
2021/03/19 03:12:39;;;;;;;19.73;11.10;;;;;;;5.70;78.14;101167.64;1631570;87;21362;-79
2021/03/19 03:15:14;;;;;;;17.12;11.28;;;;;;;5.67;78.17;101169.47;1631965;87;21748;-75
2021/03/19 03:17:49;;;;;;;19.00;11.63;;;;;;;5.65;78.22;101172.95;1648316;87;21872;-74
2021/03/19 03:20:35;;;;;;;20.10;12.50;;;;;;;5.63;78.25;101169.03;1623311;87;21205;-75
2021/03/19 03:23:08;;;;;;;16.32;10.78;;;;;;;5.63;78.32;101168.20;1628007;87;21746;-74
2021/03/19 03:25:41;;;;;;;16.80;10.83;;;;;;;5.61;78.18;101168.41;1623497;88;21857;-76
2021/03/19 03:28:13;;;;;;;19.30;11.95;;;;;;;5.59;78.28;101173.30;1621997;87;21715;-77
2021/03/19 03:30:56;;;;;;;19.83;12.03;;;;;;;5.59;78.48;101180.70;1629535;87;21750;-77
2021/03/19 03:33:29;;;;;;;18.02;11.93;;;;;;;5.62;78.39;101180.29;1628247;87;21279;-79
2021/03/19 03:36:03;;;;;;;20.55;12.85;;;;;;;5.63;78.38;101174.54;1630315;87;21294;-79
2021/03/19 03:38:36;;;;;;;19.67;12.47;;;;;;;5.63;78.27;101175.91;1623474;87;21363;-80
2021/03/19 03:41:13;;;;;;;17.07;9.87;;;;;;;5.63;78.24;101169.58;1649041;86;21358;-80
2021/03/19 03:43:47;;;;;;;15.78;10.45;;;;;;;5.62;78.25;101173.41;1649726;86;21849;-81
2021/03/19 03:46:24;;;;;;;15.60;10.82;;;;;;;5.66;78.39;101171.37;1600243;88;21865;-79
2021/03/19 03:48:58;;;;;;;17.33;11.20;;;;;;;5.74;78.37;101172.49;1621757;88;21312;-81
2021/03/19 03:51:30;;;;;;;21.93;11.00;;;;;;;5.82;78.12;101166.80;1634705;87;21283;-85
2021/03/19 03:54:08;;;;;;;18.50;10.95;;;;;;;5.85;77.87;101178.73;1629740;87;21351;-81
2021/03/19 03:56:44;;;;;;;22.07;11.45;;;;;;;5.88;77.72;101177.46;1635446;86;21841;-82
2021/03/19 03:59:18;;;;;;;18.70;10.03;;;;;;;5.90;77.60;101176.70;1630526;87;21283;-83
2021/03/19 04:01:53;;;;;;;28.20;12.75;;;;;;;5.94;77.58;101182.09;1628789;87;21292;-83
2021/03/19 04:04:26;;;;;;;26.02;12.73;;;;;;;5.96;77.54;101180.82;1629740;87;21325;-83
2021/03/19 04:07:00;;;;;;;28.92;13.50;;;;;;;5.98;77.45;101183.36;1621688;88;21905;-80
2021/03/19 04:09:32;;;;;;;32.13;14.83;;;;;;;6.00;77.33;101186.73;1621563;88;21869;-79
2021/03/19 04:12:07;;;;;;;33.02;14.30;;;;;;;5.99;77.36;101191.39;1622002;87;22737;-77
2021/03/19 04:14:40;;;;;;;25.92;13.48;;;;;;;6.00;77.35;101193.63;1624259;88;21954;-79
2021/03/19 04:17:29;;;;;;;24.02;13.53;;;;;;;5.90;77.25;101200.12;1624512;87;21367;-77
2021/03/19 04:20:03;;;;;;;19.12;12.33;;;;;;;5.80;77.40;101206.64;1621439;88;21900;-78
2021/03/19 04:22:35;;;;;;;24.07;12.70;;;;;;;5.69;77.73;101201.21;1624574;88;21233;-79
2021/03/19 04:25:10;;;;;;;21.33;14.20;;;;;;;5.62;77.92;101205.08;1624430;88;21368;-79
2021/03/19 04:27:55;;;;;;;24.27;14.83;;;;;;;5.65;78.27;101212.89;1630773;87;21439;-77
2021/03/19 04:30:38;;;;;;;20.80;12.70;;;;;;;5.78;78.27;101211.47;1635743;87;21366;-79
2021/03/19 04:33:18;;;;;;;23.55;12.25;;;;;;;5.85;77.97;101209.05;1650907;87;21209;-77
2021/03/19 04:36:18;;;;;;;27.70;12.35;;;;;;;5.92;77.85;101211.79;1647462;87;21249;-79
2021/03/19 04:38:53;;;;;;;29.20;12.93;;;;;;;5.95;77.87;101205.83;1634510;87;21260;-75
2021/03/19 04:41:27;;;;;;;24.53;14.40;;;;;;;6.03;77.76;101211.08;1629902;87;21880;-77
2021/03/19 04:44:01;;;;;;;23.70;13.47;;;;;;;6.08;77.62;101210.77;1598311;90;21366;-74
2021/03/19 04:46:37;;;;;;;21.70;12.63;;;;;;;6.04;77.45;101222.45;1604472;87;21219;-77
2021/03/19 04:49:10;;;;;;;22.07;11.57;;;;;;;6.00;77.43;101210.16;1648827;87;21232;-76
2021/03/19 04:51:47;;;;;;;18.37;11.60;;;;;;;5.99;77.43;101212.61;1641282;87;21347;-76
2021/03/19 04:54:22;;;;;;;18.83;12.10;;;;;;;6.01;77.47;101210.47;1600503;89;21328;-78
2021/03/19 04:56:54;;;;;;;25.17;12.15;;;;;;;6.01;77.51;101215.98;1607605;87;21208;-77
2021/03/19 04:59:27;;;;;;;21.17;12.95;;;;;;;6.06;77.45;101225.82;1652847;87;21220;-79
2021/03/19 05:02:01;;;;;;;25.40;12.35;;;;;;;6.04;77.40;101216.94;1646148;87;21236;-78
2021/03/19 05:04:34;;;;;;;19.27;11.57;;;;;;;6.04;77.44;101217.77;1624161;88;21905;-78
2021/03/19 05:07:08;;;;;;;19.98;9.68;;;;;;;6.00;77.33;101216.53;1637461;87;21297;-75
2021/03/19 05:09:41;;;;;;;28.83;11.10;;;;;;;5.98;77.46;101215.05;1652884;87;21308;-77
2021/03/19 05:12:15;;;;;;;31.62;12.20;;;;;;;6.00;77.70;101222.56;1650831;87;21219;-79
2021/03/19 05:14:48;;;;;;;20.15;10.50;;;;;;;5.99;77.57;101225.01;1651071;85;21369;-78
2021/03/19 05:17:20;;;;;;;19.63;11.47;;;;;;;5.97;77.66;101222.98;1647956;86;21742;-78
2021/03/19 05:19:54;;;;;;;25.40;10.58;;;;;;;5.98;77.64;101230.20;1648139;87;21283;-77
2021/03/19 05:22:27;;;;;;;18.30;10.53;;;;;;;5.96;77.53;101237.83;1628220;87;21470;-79
2021/03/19 05:25:00;;;;;;;17.15;10.78;;;;;;;5.90;77.67;101231.80;1648108;87;21771;-73
2021/03/19 05:27:34;;;;;;;18.27;9.78;;;;;;;5.91;77.77;101237.63;1648157;87;21208;-78
2021/03/19 05:30:08;;;;;;;13.70;9.10;;;;;;;5.94;77.84;101233.94;1618305;88;21885;-75
2021/03/19 05:32:41;;;;;;;17.95;11.65;;;;;;;5.98;77.72;101235.72;1640106;87;21244;-73
2021/03/19 05:35:15;;;;;;;15.05;10.10;;;;;;;5.95;77.50;101233.38;1626010;88;21726;-75
2021/03/19 05:37:49;;;;;;;14.83;9.38;;;;;;;5.93;77.59;101238.27;1632357;87;21374;-75
2021/03/19 05:40:41;;;;;;;13.98;10.38;;;;;;;5.99;77.73;101240.16;1604305;88;21238;-76
2021/03/19 05:43:25;;;;;;;17.15;10.15;;;;;;;6.13;77.88;101234.38;1635466;87;21220;-77
2021/03/19 05:46:13;;;;;;;13.83;10.23;;;;;;;6.19;77.55;101229.38;1603687;89;21395;-74
2021/03/19 05:49:02;;;;;;;17.57;11.78;;;;;;;6.21;77.47;101232.75;1584601;88;21369;-75
2021/03/19 05:51:55;;;;;;;15.35;10.60;;;;;;;6.21;76.98;101237.41;1595970;88;21293;-77
2021/03/19 05:54:36;;;;;;;16.17;10.70;;;;;;;6.16;76.98;101242.75;1588280;90;21740;-75
2021/03/19 05:57:28;;;;;;;18.25;12.53;;;;;;;6.16;76.88;101241.38;1592214;90;21435;-75
2021/03/19 06:00:08;;;;;;;19.20;12.45;;;;;;;6.17;77.19;101243.89;1599581;88;21368;-75
2021/03/19 06:02:42;;;;;;;24.90;13.32;;;;;;;6.26;77.26;101263.79;1591899;90;21248;-76
2021/03/19 06:05:24;;;;;;;20.17;14.28;;;;;;;6.30;77.07;101267.81;1574521;90;21265;-79
2021/03/19 06:08:02;;;;;;;19.73;12.53;;;;;;;6.33;76.90;101271.49;1641386;87;21354;-76
2021/03/19 06:10:42;;;;;;;19.70;11.53;;;;;;;6.35;76.72;101280.41;1587806;89;21418;-78
2021/03/19 06:13:24;;;;;;;15.90;11.83;;;;;;;6.36;76.73;101280.72;1593342;89;21795;-77
2021/03/19 06:16:33;;;;;;;21.20;12.00;;;;;;;6.39;76.33;101285.27;1622536;87;21236;-80
2021/03/19 06:19:28;;;;;;;20.70;12.75;;;;;;;6.41;76.28;101287.81;1590130;87;21248;-87
2021/03/19 06:22:43;;;;;;;18.55;13.43;;;;;;;6.42;76.26;101286.74;1631235;87;21312;-72
2021/03/19 06:25:39;;;;;;;21.02;14.40;;;;;;;6.48;76.30;101284.48;1630215;87;21303;-73
2021/03/19 06:28:36;;;;;;;16.73;10.88;;;;;;;6.49;75.71;101288.93;1634033;87;21263;-75
2021/03/19 06:31:25;;;;;;;16.48;10.78;;;;;;;6.47;75.56;101298.80;1637857;87;21236;-76
2021/03/19 06:34:26;;;;;;;18.17;11.93;;;;;;;6.44;75.58;101292.88;1641247;87;21423;-76
2021/03/19 06:37:04;;;;;;;19.27;11.73;;;;;;;6.45;75.57;101294.56;1633367;87;21272;-73
2021/03/19 06:39:55;;;;;;;15.70;11.95;;;;;;;6.51;75.93;101299.20;1630855;87;21202;-75
2021/03/19 06:42:38;;;;;;;21.12;12.45;;;;;;;6.55;75.77;101293.57;1634168;87;21498;-72
2021/03/19 06:45:25;;;;;;;18.50;10.68;;;;;;;6.55;75.77;101293.57;1633159;87;21233;-74
2021/03/19 06:47:59;;;;;;;16.65;10.85;;;;;;;6.51;75.58;101305.58;1633513;87;21236;-73
2021/03/19 06:50:40;;;;;;;22.30;12.63;;;;;;;6.49;75.66;101306.86;1645679;87;21358;-75
2021/03/19 06:53:19;;;;;;;21.52;11.73;;;;;;;6.47;75.80;101300.17;1645173;86;21390;-73
2021/03/19 06:56:12;;;;;;;17.55;13.53;;;;;;;6.50;75.98;101305.79;1642042;87;21350;-74
2021/03/19 06:58:48;;;;;;;22.58;13.22;;;;;;;6.50;75.97;101307.17;1644958;86;21407;-71
2021/03/19 07:01:38;;;;;;;21.45;13.70;;;;;;;6.51;76.05;101305.58;1633174;87;21253;-74
2021/03/19 07:04:45;;;;;;;28.23;15.88;;;;;;;6.54;76.28;101304.30;1630925;87;21260;-72
2021/03/19 07:07:32;;;;;;;24.00;13.80;;;;;;;6.59;76.39;101299.80;1645964;87;21247;-73
2021/03/19 07:10:57;;;;;;;24.52;14.90;;;;;;;6.67;76.41;101297.33;1639107;86;21976;-74
2021/03/19 07:13:58;;;;;;;21.75;14.70;;;;;;;6.69;76.27;101300.70;1598522;87;21885;-73
2021/03/19 07:16:54;;;;;;;21.23;13.15;;;;;;;6.68;76.45;101295.73;1632149;86;21252;-74
2021/03/19 07:19:30;;;;;;;19.00;13.10;;;;;;;6.67;76.41;101301.47;1624613;87;21433;-74
2021/03/19 07:22:26;;;;;;;17.70;12.07;;;;;;;6.76;76.35;101307.89;1635913;86;21815;-75
2021/03/19 07:25:16;;;;;;;19.87;12.88;;;;;;;6.84;76.10;101312.31;1640290;86;21741;-76
2021/03/19 07:28:05;;;;;;;20.08;13.65;;;;;;;6.85;76.11;101314.00;1624997;87;21232;-76
2021/03/19 07:31:10;;;;;;;24.20;14.85;;;;;;;6.86;75.84;101312.41;1633960;87;21209;-76
2021/03/19 07:34:22;;;;;;;23.12;14.98;;;;;;;6.84;75.70;101317.27;1627928;87;21263;-76
2021/03/19 07:42:11;;;;;;;29.85;14.23;;;;;;;6.90;75.85;101307.28;1568351;88;21337;-78
2021/03/19 07:44:54;;;;;;;22.30;13.98;;;;;;;6.95;75.46;101317.96;1621902;86;21286;-77
2021/03/19 07:47:51;;;;;;;24.75;16.50;;;;;;;6.98;75.34;101314.77;1580330;87;21238;-80
2021/03/19 07:50:38;;;;;;;35.52;16.93;;;;;;;7.00;75.53;101312.63;1583425;89;21294;-78
2021/03/19 07:53:41;;;;;;;22.35;14.07;;;;;;;7.01;75.58;101307.97;1604216;87;21247;-77
2021/03/19 07:56:34;;;;;;;25.52;14.98;;;;;;;6.96;75.35;101309.16;1603121;87;21259;-77
2021/03/19 07:59:36;;;;;;;32.00;14.28;;;;;;;6.95;75.31;101315.20;1600890;88;21368;-79
2021/03/19 08:02:37;;;;;;;22.37;15.63;;;;;;;6.98;75.37;101320.30;1618111;88;21852;-77
2021/03/19 08:05:29;;;;;;;25.52;15.53;;;;;;;6.97;75.46;101321.89;1616666;86;21240;-78
2021/03/19 08:08:36;;;;;;;31.12;16.60;;;;;;;6.97;75.40;101314.44;1611968;87;21435;-80
2021/03/19 08:11:26;;;;;;;23.30;15.63;;;;;;;6.95;75.50;101312.44;1554922;91;21297;-79
2021/03/19 08:14:33;;;;;;;24.32;15.08;;;;;;;6.89;75.83;101322.16;1561137;91;21368;-76
2021/03/19 08:18:04;;;;;;;24.70;16.05;;;;;;;6.86;76.15;101315.69;1587056;89;21761;-78
2021/03/19 08:21:02;;;;;;;29.67;17.73;;;;;;;6.92;76.45;101316.18;1602047;87;21244;-81
2021/03/19 08:24:13;;;;;;;26.62;17.17;;;;;;;6.92;76.32;101312.04;1579122;89;21386;-77
2021/03/19 08:27:18;;;;;;;27.32;17.40;;;;;;;6.92;76.36;101313.42;1578479;89;22095;-77
2021/03/19 08:30:31;;;;;;;29.35;16.60;;;;;;;6.91;76.62;101307.59;1609549;89;21228;-75
2021/03/19 08:33:30;;;;;;;22.60;13.22;;;;;;;6.96;76.57;101315.50;1594004;90;21230;-75
2021/03/19 08:36:25;;;;;;;20.97;14.05;;;;;;;7.04;76.62;101315.78;1593975;90;21243;-75
2021/03/19 08:39:25;;;;;;;24.47;16.23;;;;;;;7.07;76.17;101316.70;1591485;89;21233;-75
2021/03/19 08:42:24;;;;;;;29.30;16.60;;;;;;;7.04;75.91;101323.55;1616893;87;21197;-75
2021/03/19 08:45:12;;;;;;;24.95;15.43;;;;;;;7.06;75.84;101325.54;1603658;88;21283;-77
2021/03/19 08:47:53;;;;;;;20.43;14.28;;;;;;;7.10;76.15;101324.56;1607100;88;21299;-74
2021/03/19 08:50:36;;;;;;;21.42;13.48;;;;;;;7.14;76.04;101321.67;1610732;89;21299;-75
2021/03/19 08:53:18;;;;;;;;;;;;;;;7.20;75.79;101317.47;1609122;88;21837;-78
2021/03/19 08:56:06;;;;;;;24.23;14.15;;;;;;;7.31;75.57;101316.76;1604020;88;20361;-78
2021/03/19 08:58:52;;;;;;;20.45;13.50;;;;;;;7.38;75.54;101319.78;1607166;87;21885;-78
2021/03/19 09:01:58;;;;;;;27.22;15.23;;;;;;;7.50;75.55;101322.13;1603023;88;21360;-78
2021/03/19 09:05:00;;;;;;;26.55;15.03;;;;;;;7.62;75.58;101319.47;1602165;88;21236;-75
2021/03/19 09:07:38;;;;;;;23.62;13.58;;;;;;;7.69;75.11;101318.35;1597074;88;21240;-75
2021/03/19 09:10:27;;;;;;;27.82;13.85;;;;;;;7.76;74.87;101322.41;1607065;88;21443;-75
2021/03/19 09:13:09;;;;;;;46.90;20.85;;;;;;;7.84;74.94;101318.83;1591243;88;21228;-77
2021/03/19 09:15:45;;;;;;;33.63;18.67;;;;;;;7.93;74.38;101312.47;1592515;89;21240;-75
2021/03/19 09:18:45;;;;;;;28.60;16.85;;;;;;;7.95;73.99;101307.03;1596569;89;21368;-76
2021/03/19 09:21:41;;;;;;;31.87;16.62;;;;;;;7.98;73.97;101316.78;1604573;88;21473;-77
2021/03/19 09:24:22;;;;;;;28.65;15.58;;;;;;;7.98;73.33;101317.64;1602228;88;21438;-77
2021/03/19 09:26:59;;;;;;;24.52;12.43;;;;;;;7.89;73.15;101316.23;1603493;88;21393;-79
2021/03/19 09:29:36;;;;;;;19.17;12.40;;;;;;;7.76;73.35;101319.13;1609197;88;21225;-76
2021/03/19 09:32:41;;;;;;;24.57;12.25;;;;;;;7.71;73.32;101318.95;1606482;88;21213;-77
2021/03/19 09:35:42;;;;;;;;;;;;;;;7.72;73.35;101315.67;1613786;87;21928;-79
2021/03/19 09:38:28;;;;;;;30.08;20.52;;;;;;;7.66;73.56;101316.58;1609882;88;20186;-77
2021/03/19 09:41:05;;;;;;;31.25;21.95;;;;;;;7.62;73.91;101318.95;1612326;88;21468;-77
2021/03/19 09:43:54;;;;;;;31.25;19.30;;;;;;;7.61;73.81;101316.41;1610754;88;21401;-76
2021/03/19 09:46:38;;;;;;;24.27;15.15;;;;;;;7.70;73.75;101321.94;1608007;88;21495;-77
2021/03/19 09:49:24;;;;;;;29.37;14.23;;;;;;;7.70;73.39;101321.42;1603879;88;21386;-78
2021/03/19 09:51:59;;;;;;;22.25;14.10;;;;;;;7.69;73.33;101323.02;1599079;88;21464;-79
2021/03/19 09:54:35;;;;;;;20.80;14.00;;;;;;;7.69;73.41;101319.73;1579122;89;21234;-78
2021/03/19 09:57:31;;;;;;;19.12;13.05;;;;;;;7.68;73.14;101322.71;1597073;88;21382;-74
2021/03/19 10:00:23;;;;;;;18.73;12.05;;;;;;;7.64;72.97;101323.70;1590182;88;21433;-77
2021/03/19 10:03:11;;;;;;;22.17;12.30;;;;;;;7.63;72.99;101321.16;1600020;87;21219;-79
2021/03/19 10:09:12;;;;;;;18.77;13.18;;;;;;;7.88;72.79;101315.93;1580765;89;21878;-78
2021/03/19 10:12:07;;;;;;;18.62;11.75;;;;;;;7.99;72.38;101319.33;1578845;90;21272;-82
2021/03/19 10:14:42;;;;;;;21.02;13.78;;;;;;;8.11;71.97;101316.13;1546047;91;21453;-82
2021/03/19 10:17:33;;;;;;;23.98;15.10;;;;;;;8.17;71.24;101322.64;1578966;89;21279;-82
2021/03/19 10:20:22;;;;;;;22.82;14.73;;;;;;;8.19;71.06;101313.56;1567785;90;21369;-77
2021/03/19 10:23:13;;;;;;;22.52;13.62;;;;;;;8.26;70.62;101326.29;1575254;88;21250;-72
2021/03/19 10:25:50;;;;;;;27.07;14.93;;;;;;;8.35;70.27;101324.06;1581746;88;21886;-73
2021/03/19 10:28:25;;;;;;;19.45;11.97;;;;;;;8.43;69.93;101322.36;1587615;90;21379;-78
2021/03/19 10:31:09;;;;;;;21.52;14.25;;;;;;;8.50;69.54;101324.54;1583485;89;21297;-80
2021/03/19 10:33:49;;;;;;;31.35;14.73;;;;;;;8.50;69.14;101324.54;1583898;89;21309;-80
2021/03/19 10:36:43;;;;;;;25.52;14.53;;;;;;;8.51;69.14;101328.44;1569577;89;21912;-76
2021/03/19 10:39:44;;;;;;;24.07;14.13;;;;;;;8.51;68.91;101320.13;1571843;90;21369;-75
2021/03/19 10:42:33;;;;;;;23.05;13.98;;;;;;;8.51;68.82;101318.75;1580130;89;21230;-77
2021/03/19 10:45:49;;;;;;;22.30;14.40;;;;;;;8.53;68.64;101320.77;1587392;88;21353;-76
2021/03/19 10:48:50;;;;;;;21.68;14.18;;;;;;;8.56;68.42;101316.14;1585322;88;21475;-81
2021/03/19 10:51:47;;;;;;;19.95;13.43;;;;;;;8.55;68.39;101304.77;1590466;88;21380;-76
2021/03/19 10:54:28;;;;;;;22.93;13.40;;;;;;;8.45;68.07;101320.23;1572511;89;21527;-79
2021/03/19 10:57:05;;;;;;;23.10;13.98;;;;;;;8.27;67.92;101316.09;1588699;89;22103;-76
2021/03/19 10:59:38;;;;;;;21.93;12.80;;;;;;;8.23;68.35;101309.31;1593720;89;21443;-75
2021/03/19 11:02:25;;;;;;;22.07;14.00;;;;;;;8.22;68.55;101311.25;1580110;89;21295;-73
2021/03/19 11:05:07;;;;;;;21.70;14.23;;;;;;;8.25;69.00;101312.16;1598840;89;21217;-75
2021/03/19 11:07:44;;;;;;;29.35;16.82;;;;;;;8.27;69.06;101322.44;1598236;89;21494;-74
2021/03/19 11:10:39;;;;;;;25.92;16.23;;;;;;;8.18;70.09;101317.41;1600214;89;21370;-77
2021/03/19 11:13:21;;;;;;;21.35;13.65;;;;;;;8.07;70.22;101318.16;1599917;89;21909;-74
2021/03/19 11:15:58;;;;;;;28.17;13.88;;;;;;;8.01;70.42;101317.17;1601551;89;21832;-75
2021/03/19 11:18:38;;;;;;;24.67;15.18;;;;;;;7.93;70.63;101311.95;1599698;89;21781;-75
2021/03/19 11:21:20;;;;;;;26.73;15.38;;;;;;;7.95;71.28;101318.64;1595290;89;21373;-76
2021/03/19 11:24:24;;;;;;;24.07;15.88;;;;;;;8.00;71.88;101322.41;1604827;88;21229;-75
2021/03/19 11:27:13;;;;;;;23.40;15.72;;;;;;;8.06;72.16;101317.34;1611820;88;21384;-77
2021/03/19 11:29:46;;;;;;;26.93;16.50;;;;;;;8.16;72.12;101310.75;1612113;89;21360;-74
2021/03/19 11:32:30;;;;;;;33.28;18.02;;;;;;;8.18;71.71;101307.20;1603050;88;21990;-75
2021/03/19 11:35:19;;;;;;;27.15;16.40;;;;;;;8.23;71.42;101303.78;1611567;89;21431;-76
2021/03/19 11:37:54;;;;;;;29.40;16.77;;;;;;;8.23;70.99;101311.55;1612184;89;21332;-77
2021/03/19 11:40:39;;;;;;;31.70;17.60;;;;;;;8.25;70.97;101303.00;1608620;89;21376;-76
2021/03/19 11:43:16;;;;;;;27.82;16.82;;;;;;;8.34;71.02;101309.94;1599943;88;21885;-76
2021/03/19 11:45:49;;;;;;;22.05;13.72;;;;;;;8.40;70.84;101297.38;1599794;89;21356;-75
2021/03/19 11:48:31;;;;;;;21.65;11.88;;;;;;;8.44;70.63;101302.77;1599592;89;21766;-74
2021/03/19 11:51:27;;;;;;;26.33;11.30;;;;;;;8.39;70.32;101299.85;1603930;88;21435;-75
2021/03/19 11:54:03;;;;;;;18.23;12.07;;;;;;;8.35;70.10;101298.64;1619939;88;21293;-75
2021/03/19 11:56:36;;;;;;;17.95;11.97;;;;;;;8.29;70.09;101295.42;1615018;88;21272;-74
2021/03/19 11:59:11;;;;;;;25.45;12.35;;;;;;;8.24;69.94;101290.25;1611713;88;21388;-80
2021/03/19 12:01:45;;;;;;;24.82;11.88;;;;;;;8.14;69.58;101293.52;1615990;88;21209;-83
2021/03/19 12:04:22;;;;;;;26.77;12.23;;;;;;;8.06;69.32;101287.45;1614230;87;21710;-83
2021/03/19 12:06:55;;;;;;;22.67;11.70;;;;;;;8.04;69.00;101284.94;1618090;88;21415;-79
2021/03/19 12:09:30;;;;;;;24.70;13.68;;;;;;;8.12;68.92;101294.30;1617252;88;21354;-76
2021/03/19 12:12:05;;;;;;;26.12;13.78;;;;;;;8.13;68.99;101291.84;1625790;88;21368;-76
2021/03/19 12:14:49;;;;;;;33.58;17.00;;;;;;;8.10;69.02;101293.70;1606455;88;21225;-79
2021/03/19 12:17:31;;;;;;;29.55;15.72;;;;;;;7.96;69.52;101294.89;1604618;88;21233;-74
2021/03/19 12:20:05;;;;;;;23.80;14.40;;;;;;;7.81;70.21;101300.48;1634263;88;21229;-73
2021/03/19 12:22:40;;;;;;;26.90;15.65;;;;;;;7.77;70.87;101298.70;1633967;88;21214;-83
2021/03/19 12:25:25;;;;;;;29.70;14.47;;;;;;;7.79;71.33;101290.20;1634097;88;21872;-77
2021/03/19 12:27:59;;;;;;;27.93;15.25;;;;;;;7.81;71.64;101299.95;1633838;88;21854;-77
2021/03/19 12:30:33;;;;;;;35.45;15.32;;;;;;;7.80;71.62;101298.79;1626074;88;21313;-75
2021/03/19 12:33:07;;;;;;;27.45;15.98;;;;;;;7.84;71.93;101298.09;1634024;88;21915;-79
2021/03/19 12:35:45;;;;;;;32.70;16.67;;;;;;;7.88;71.94;101306.26;1623410;88;21381;-84
2021/03/19 12:38:17;;;;;;;21.23;12.25;;;;;;;7.91;72.10;101308.55;1608104;88;21231;-86
2021/03/19 12:40:52;;;;;;;21.77;11.63;;;;;;;7.88;71.88;101309.55;1618821;88;21749;-85
2021/03/19 12:43:24;;;;;;;22.30;11.78;;;;;;;7.86;71.60;101314.47;1623376;88;21742;-73
2021/03/19 12:45:57;;;;;;;21.02;11.33;;;;;;;7.88;71.55;101306.78;1607293;88;21280;-73